METAR AND TAF INFORMATION
METAR FOR GOBD
ADDS - METARS form results

(0236 UTC 21 February 2019)
Data provider http://aviationweather.gov/metar/data/
 
METAR text: GOBD 210230Z 36014KT 8000 NSC 19/12 Q1013 NOSIG
Conditions at: GOBD (DAKAR/DIAGNE , SN) observed 0230 UTC 21 February 2019
Temperature: 19.0°C (66°F)
Dewpoint: 12.0°C (54°F) [RH = 64%]
Pressure (altimeter): 29.91 inches Hg (1013.0 mb)
Winds: from the N (360 degrees) at 16 MPH (14 knots; 7.2 m/s)
Visibility: 5 miles ( 8 km)
Ceiling: at least 12,000 feet AGL
Clouds: sky clear below 12,000 feet AGL
Weather: no significant weather observed at this time

METAR text: GOBD 210200Z 36015KT 8000 NSC 19/12 Q1013 NOSIG
Conditions at: GOBD (DAKAR/DIAGNE , SN) observed 0200 UTC 21 February 2019
Temperature: 19.0°C (66°F)
Dewpoint: 12.0°C (54°F) [RH = 64%]
Pressure (altimeter): 29.91 inches Hg (1013.0 mb)
Winds: from the N (360 degrees) at 17 MPH (15 knots; 7.7 m/s)
Visibility: 5 miles ( 8 km)
Ceiling: at least 12,000 feet AGL
Clouds: sky clear below 12,000 feet AGL
Weather: no significant weather observed at this time

Forecast for: GOBD (DAKAR/DIAGNE , SN)
Text: TAF GOBD 202330Z 2100/2206 02010KT 7000 NSC
Forecast period: 0000 UTC 21 February 2019 to 0600 UTC 22 February 2019
Forecast type: FROM: standard forecast or significant change
Winds: from the NNE (20 degrees) at 12 MPH (10 knots; 5.1 m/s)
Visibility: 4 miles (7 km)
Ceiling: unknown
Clouds: missing
Weather: no significant weather forecast for this period

 AIRPORT MAP

 RUNWAY INFORMATION

 AIRPORT FREQUENCIES

 AIRPORT NEAR NAVIGATION AIDS



Powered by Virtual Airlines Manager [v2.6.2]